N.dadayli — TCCW7 — position and weather

sailwx.info

Track history (hours):
 
Tides and Currents Weather Stations Pressure Air Temp Water Temp Dewpoint Dewpoint Depression Visibility Wind Speed Wind Dir Waves Ship Positions

N.dadayli

Last reported at 2014-Dec-19 06:28 UTC. Time now 2014-Dec-20 09:42 UTC.
Position N 40°26' E 029°05'.

Length 101 m; draft 7.7 m.

Type: Ship. MMSI: 271000768.

Date/timePositionNaut miles runAvg speedWind from/ knotsBaromVisibWave heightAir tempDewpointWater temp
2014-Dec-19 06:28N 40°26' E 029°05'1311.3
2014-Dec-19 05:18N 40°27' E 028°48'192 7.6
2014-Dec-18 04:04N 37°48' E 026°29'1111.7
2014-Dec-18 03:08N 37°39' E 026°36'1710.7
2014-Dec-18 01:31N 37°27' E 026°51'  
2014-Dec-10 10:30N 35°59' E 026°33'1311.7
2014-Dec-10 09:24N 35°58' E 026°17'1211.8
2014-Dec-10 08:25N 35°57' E 026°03'1011.5
2014-Dec-10 07:33N 35°56' E 025°51'1111.2
2014-Dec-10 06:33N 35°54' E 025°37'1111.3
2014-Dec-10 05:33N 35°53' E 025°23'1111.4
2014-Dec-10 04:33N 35°52' E 025°09'1211.7
2014-Dec-10 03:33N 35°51' E 024°55'1211.6
2014-Dec-10 02:33N 35°49' E 024°41'1111.4
2014-Dec-10 01:33N 35°48' E 024°27'  
Track history (hours):
 
Tides and Currents Weather Stations Pressure Air Temp Water Temp Dewpoint Dewpoint Depression Visibility Wind Speed Wind Dir Waves Ship Positions

N.dadayli

Last reported at 2014-Dec-19 06:28 UTC. Time now 2014-Dec-20 09:42 UTC.
Position N 40°26' E 029°05'.

Length 101 m; draft 7.7 m.

Type: Ship. MMSI: 271000768.

Date/timePositionNaut miles runAvg speedWind from/ knotsBaromVisibWave heightAir tempDewpointWater temp
2014-Dec-19 06:28N 40°26' E 029°05'1311.3
2014-Dec-19 05:18N 40°27' E 028°48'192 7.6
2014-Dec-18 04:04N 37°48' E 026°29'1111.7
2014-Dec-18 03:08N 37°39' E 026°36'1710.7
2014-Dec-18 01:31N 37°27' E 026°51'  
2014-Dec-10 10:30N 35°59' E 026°33'1311.7
2014-Dec-10 09:24N 35°58' E 026°17'1211.8
2014-Dec-10 08:25N 35°57' E 026°03'1011.5
2014-Dec-10 07:33N 35°56' E 025°51'1111.2
2014-Dec-10 06:33N 35°54' E 025°37'1111.3
2014-Dec-10 05:33N 35°53' E 025°23'1111.4
2014-Dec-10 04:33N 35°52' E 025°09'1211.7
2014-Dec-10 03:33N 35°51' E 024°55'1211.6
2014-Dec-10 02:33N 35°49' E 024°41'1111.4
2014-Dec-10 01:33N 35°48' E 024°27'  

Dump ship's entire track history